Leonia, New Jersey
Current Conditions -  °F | °C
As of 9:51 AM on Thursday 30 Oct 2014 (Local Time) from KTEB Reporting Station
Clear Clear  
Wind Chill: 53°   Ceiling: Unl
Heat Index: 53°   Visibility: 10mi
Dew Point: 42°   Wind: 5mph
Humidity: 66%   Direction: 330°NNW
Pressure: 29.99"   Gusts: NA
Location:  40.86°N, 73.99°W
Report Text: KTEB 301351Z 33004KT 10SM CLR 12/06 A2999 RMK AO2 SLP156 T01170056
Loading
Personal Weather Stations






























Interactive Weather Map New forecast layout! Learn more

10-Day Weather Forecast

Advertisements
Track Severe Weather on mobile